createdAt,value
2022-10-18T00:00:57.483Z,4.53
2022-10-18T00:03:25.954Z,6.87
2022-10-18T00:05:54.350Z,6.50
2022-10-18T00:08:22.381Z,7.97
2022-10-18T00:10:50.881Z,6.77
2022-10-18T00:13:20.413Z,9.03
2022-10-18T00:15:52.800Z,4.87
2022-10-18T00:18:20.761Z,6.70
2022-10-18T00:20:58.126Z,8.77
2022-10-18T00:23:26.660Z,5.23
2022-10-18T00:26:05.728Z,8.43
2022-10-18T00:28:36.328Z,9.07
2022-10-18T00:31:15.744Z,6.17
2022-10-18T00:33:44.935Z,4.87
2022-10-18T00:36:13.158Z,5.63
2022-10-18T00:38:41.465Z,6.83
2022-10-18T00:41:13.940Z,6.40
2022-10-18T00:44:02.291Z,9.57
2022-10-18T00:46:31.703Z,6.07
2022-10-18T00:49:02.655Z,8.33
2022-10-18T00:51:35.442Z,5.73
2022-10-18T00:54:03.552Z,4.83
2022-10-18T00:56:31.729Z,5.37
2022-10-18T00:59:01.147Z,9.23
2022-10-18T01:01:29.090Z,3.70
2022-10-18T01:03:57.852Z,6.13
2022-10-18T01:06:28.157Z,4.33
2022-10-18T01:09:11.070Z,8.07
2022-10-18T01:12:16.384Z,4.93
2022-10-18T01:14:52.539Z,8.27
2022-10-18T01:17:27.938Z,5.63
2022-10-18T01:20:39.327Z,5.33
2022-10-18T01:23:12.383Z,7.20
2022-10-18T01:25:50.592Z,5.70
2022-10-18T01:28:36.559Z,4.37
2022-10-18T01:31:09.862Z,8.57
2022-10-18T01:33:42.412Z,6.93
2022-10-18T01:36:16.589Z,7.17
2022-10-18T01:38:46.216Z,7.67
2022-10-18T01:41:16.063Z,7.53
2022-10-18T01:43:46.330Z,5.07
2022-10-18T01:46:21.158Z,4.90
2022-10-18T01:48:50.143Z,6.93
2022-10-18T01:51:20.080Z,5.37
2022-10-18T01:53:48.267Z,7.07
2022-10-18T01:56:33.581Z,6.27
2022-10-18T01:59:11.875Z,8.50
2022-10-18T02:01:52.837Z,9.03
2022-10-18T02:04:30.705Z,6.40
2022-10-18T02:07:05.754Z,6.07
2022-10-18T02:09:39.864Z,8.63
2022-10-18T02:12:10.582Z,11.00
2022-10-18T02:14:39.415Z,6.13
2022-10-18T02:17:11.812Z,5.57
2022-10-18T02:19:43.924Z,4.73
2022-10-18T02:22:13.748Z,8.83
2022-10-18T02:24:48.235Z,11.37
2022-10-18T02:27:16.597Z,8.67
2022-10-18T02:29:45.488Z,8.50
2022-10-18T02:32:21.133Z,6.70
2022-10-18T02:34:54.638Z,7.47
2022-10-18T02:37:22.624Z,5.93
2022-10-18T02:39:52.620Z,6.07
2022-10-18T02:42:20.489Z,7.33
2022-10-18T02:44:48.385Z,8.70
2022-10-18T02:47:17.714Z,10.17
2022-10-18T02:49:45.639Z,5.73
2022-10-18T02:52:13.467Z,6.83
2022-10-18T02:54:41.318Z,7.70
2022-10-18T02:57:09.572Z,7.33
2022-10-18T02:59:37.462Z,7.13
2022-10-18T03:02:05.307Z,8.13
2022-10-18T03:04:34.713Z,7.63
2022-10-18T03:07:02.732Z,8.40
2022-10-18T03:09:30.714Z,7.17
2022-10-18T03:11:58.864Z,11.67
2022-10-18T03:14:26.869Z,3.80
2022-10-18T03:16:56.887Z,6.60
2022-10-18T03:19:24.953Z,8.13
2022-10-18T03:21:54.179Z,9.67
2022-10-18T03:24:22.127Z,6.70
2022-10-18T03:26:50.228Z,4.57
2022-10-18T03:29:18.176Z,7.07
2022-10-18T03:31:46.119Z,11.47
2022-10-18T03:34:14.126Z,5.80
2022-10-18T03:36:42.638Z,15.20
2022-10-18T03:39:13.109Z,10.10
2022-10-18T03:41:41.077Z,7.47
2022-10-18T03:44:09.000Z,7.70
2022-10-18T03:46:39.488Z,7.10
2022-10-18T03:49:07.485Z,8.57
2022-10-18T03:51:35.370Z,12.10
2022-10-18T03:54:03.438Z,7.87
2022-10-18T03:56:32.933Z,7.50
2022-10-18T03:59:00.847Z,7.57
2022-10-18T04:01:28.740Z,6.77
2022-10-18T04:03:56.649Z,7.27
2022-10-18T04:06:24.524Z,11.93
2022-10-18T04:08:52.545Z,12.90
2022-10-18T04:11:20.403Z,9.83
2022-10-18T04:13:50.311Z,9.20
2022-10-18T04:16:18.209Z,11.20
2022-10-18T04:18:46.202Z,12.17
2022-10-18T04:21:14.281Z,7.83
2022-10-18T04:23:42.296Z,12.07
2022-10-18T04:26:10.370Z,16.90
2022-10-18T04:28:40.307Z,11.03
2022-10-18T04:31:10.310Z,11.07
2022-10-18T04:33:38.564Z,12.53
2022-10-18T04:36:06.999Z,11.60
2022-10-18T04:38:35.004Z,8.03
2022-10-18T04:41:03.017Z,11.57
2022-10-18T04:43:31.008Z,9.97
2022-10-18T04:45:59.078Z,12.63
2022-10-18T04:48:28.477Z,13.60
2022-10-18T04:50:56.426Z,16.07
2022-10-18T04:53:24.333Z,9.77
2022-10-18T04:55:52.476Z,10.50
2022-10-18T04:58:20.934Z,10.67
2022-10-18T05:00:48.999Z,11.00
2022-10-18T05:03:17.858Z,14.63
2022-10-18T05:06:01.410Z,13.93
2022-10-18T05:08:30.531Z,10.90
2022-10-18T05:10:58.585Z,12.73
2022-10-18T05:13:26.703Z,13.57
2022-10-18T05:15:54.872Z,15.47
2022-10-18T05:18:23.074Z,9.40
2022-10-18T05:20:54.131Z,13.50
2022-10-18T05:23:24.283Z,13.20
2022-10-18T05:25:53.220Z,12.43
2022-10-18T05:28:38.824Z,13.47
2022-10-18T05:31:09.394Z,12.53
2022-10-18T05:33:37.561Z,9.90
2022-10-18T05:36:07.657Z,16.03
2022-10-18T05:41:05.742Z,14.80
2022-10-18T05:43:34.052Z,13.70
2022-10-18T05:46:02.210Z,15.37
2022-10-18T05:48:30.306Z,15.13
2022-10-18T05:50:59.438Z,15.50
2022-10-18T05:53:38.046Z,22.10
2022-10-18T05:56:07.273Z,17.50
2022-10-18T05:58:35.920Z,14.07
2022-10-18T06:01:05.878Z,15.43
2022-10-18T06:03:34.752Z,14.17
2022-10-18T06:06:04.412Z,18.97
2022-10-18T06:08:35.593Z,17.43
2022-10-18T06:11:08.062Z,14.83
2022-10-18T06:13:36.277Z,18.37
2022-10-18T06:16:04.261Z,17.13
2022-10-18T06:23:07.795Z,15.23
2022-10-18T06:25:48.239Z,14.27
2022-10-18T06:28:16.660Z,17.80
2022-10-18T06:30:45.329Z,17.67
2022-10-18T06:33:13.300Z,19.33
2022-10-18T06:35:41.331Z,18.27
2022-10-18T06:38:09.428Z,17.97
2022-10-18T06:40:38.228Z,17.07
2022-10-18T06:43:19.987Z,17.70
2022-10-18T06:45:49.275Z,15.83
2022-10-18T06:48:23.876Z,14.23
2022-10-18T06:50:53.825Z,19.17
2022-10-18T06:53:22.029Z,16.67
2022-10-18T06:55:55.455Z,17.60
2022-10-18T06:58:24.970Z,19.43
2022-10-18T07:00:53.042Z,16.57
2022-10-18T07:03:21.858Z,17.00
2022-10-18T07:05:49.894Z,14.07
2022-10-18T07:08:18.973Z,21.23
2022-10-18T07:10:53.060Z,21.20
2022-10-18T07:13:31.969Z,21.73
2022-10-18T07:16:05.653Z,19.97
2022-10-18T07:18:35.624Z,20.77
2022-10-18T07:21:17.831Z,22.90
2022-10-18T07:23:47.270Z,20.67
2022-10-18T07:26:17.528Z,22.00
2022-10-18T07:28:48.083Z,25.53
2022-10-18T07:31:17.984Z,21.93
2022-10-18T07:33:46.162Z,19.57
2022-10-18T07:36:14.742Z,22.37
2022-10-18T07:38:42.990Z,19.17
2022-10-18T07:41:13.841Z,23.10
2022-10-18T07:43:47.000Z,26.53
2022-10-18T07:46:18.273Z,28.10
2022-10-18T07:49:00.651Z,29.37
2022-10-18T07:52:12.137Z,28.83
2022-10-18T07:54:42.872Z,29.07
2022-10-18T07:58:01.169Z,31.40
2022-10-18T08:00:50.112Z,33.53
2022-10-18T08:03:24.461Z,36.93
2022-10-18T08:05:54.342Z,33.97
2022-10-18T08:12:54.680Z,37.40
2022-10-18T08:15:25.119Z,39.00
2022-10-18T08:17:53.728Z,49.17
2022-10-18T08:34:19.531Z,46.83
2022-10-18T08:37:10.485Z,42.70
2022-10-18T08:39:38.977Z,63.60
2022-10-18T08:42:52.779Z,62.60
2022-10-18T08:45:40.820Z,61.43
2022-10-18T08:48:22.002Z,59.30
2022-10-18T08:50:54.509Z,50.35
2022-10-18T08:53:39.980Z,48.10
2022-10-18T08:56:14.934Z,49.07
2022-10-18T08:58:45.251Z,45.10
2022-10-18T09:01:25.978Z,61.30
2022-10-18T09:04:23.864Z,72.87
2022-10-18T09:07:04.689Z,79.93
2022-10-18T09:09:46.453Z,66.40
2022-10-18T09:12:29.445Z,73.43
2022-10-18T09:15:14.227Z,81.33
2022-10-18T09:17:57.650Z,79.13
2022-10-18T09:20:34.921Z,75.17
2022-10-18T09:23:14.201Z,70.50
2022-10-18T09:25:47.418Z,70.80
2022-10-18T09:28:21.019Z,63.43
2022-10-18T09:30:59.733Z,61.83
2022-10-18T09:33:42.571Z,64.53
2022-10-18T09:36:15.352Z,57.43
2022-10-18T09:39:12.099Z,54.40
2022-10-18T09:41:44.399Z,51.40
2022-10-18T09:44:20.009Z,48.20
2022-10-18T09:47:00.806Z,48.47
2022-10-18T09:49:43.511Z,49.23
2022-10-18T09:52:24.874Z,44.40
2022-10-18T09:54:57.286Z,57.07
2022-10-18T09:57:33.772Z,59.47
2022-10-18T10:00:22.333Z,48.33
2022-10-18T10:02:56.767Z,52.53
2022-10-18T10:05:28.945Z,55.47
2022-10-18T10:08:02.390Z,53.93
2022-10-18T10:10:34.529Z,50.70
2022-10-18T10:13:08.912Z,55.80
2022-10-18T10:15:39.424Z,49.87
2022-10-18T10:18:22.928Z,52.30
2022-10-18T10:20:54.934Z,53.93
2022-10-18T10:23:29.521Z,46.93
2022-10-18T10:26:06.590Z,45.67
2022-10-18T10:29:43.558Z,47.63
2022-10-18T10:32:18.123Z,41.77
2022-10-18T10:34:49.602Z,40.27
2022-10-18T10:37:55.040Z,33.03
2022-10-18T10:40:28.696Z,40.23
2022-10-18T10:46:47.996Z,54.70
2022-10-18T10:57:05.169Z,48.47
2022-10-18T10:59:51.911Z,54.07
2022-10-18T11:02:23.732Z,64.90
2022-10-18T11:05:18.146Z,52.80
2022-10-18T11:07:48.180Z,62.20
2022-10-18T11:10:21.792Z,57.97
2022-10-18T11:13:05.337Z,57.60
2022-10-18T11:15:38.158Z,49.90
2022-10-18T11:18:22.608Z,50.70
2022-10-18T11:20:59.894Z,46.37
2022-10-18T11:23:37.884Z,42.77
2022-10-18T11:26:48.914Z,37.10
2022-10-18T11:30:02.380Z,48.47
2022-10-18T11:32:50.961Z,48.50
2022-10-18T11:35:49.349Z,49.00
2022-10-18T11:38:32.718Z,43.47
2022-10-18T11:41:32.316Z,37.13
2022-10-18T11:44:05.236Z,42.73
2022-10-18T11:46:48.756Z,37.50
2022-10-18T11:49:42.901Z,37.43
2022-10-18T11:52:25.967Z,33.93
2022-10-18T11:55:18.652Z,35.87
2022-10-18T11:58:19.643Z,25.47
2022-10-18T12:00:52.287Z,24.07
2022-10-18T12:03:31.455Z,18.77
2022-10-18T12:06:04.595Z,16.10
2022-10-18T12:08:38.830Z,17.83
2022-10-18T12:11:14.350Z,12.53
2022-10-18T12:13:47.880Z,19.07
2022-10-18T12:16:38.936Z,15.37
2022-10-18T12:19:27.525Z,15.90
2022-10-18T12:21:59.014Z,18.93
2022-10-18T12:24:31.600Z,17.40
2022-10-18T12:33:27.389Z,11.77
2022-10-18T12:36:05.660Z,13.63
2022-10-18T12:38:36.619Z,18.93
2022-10-18T12:41:06.837Z,14.23
2022-10-18T12:43:37.771Z,21.97
2022-10-18T12:46:13.090Z,17.33
2022-10-18T12:48:46.288Z,21.00
2022-10-18T12:51:19.158Z,17.03
2022-10-18T12:54:12.772Z,18.93
2022-10-18T12:56:43.538Z,16.77
2022-10-18T12:59:55.182Z,16.23
2022-10-18T13:02:29.480Z,13.40
2022-10-18T13:05:02.746Z,14.70
2022-10-18T13:07:43.322Z,19.30
2022-10-18T13:10:45.628Z,15.90
2022-10-18T13:14:13.947Z,20.70
2022-10-18T13:16:50.617Z,19.43
2022-10-18T13:19:29.605Z,25.93
2022-10-18T13:22:16.241Z,18.87
2022-10-18T13:25:05.676Z,18.47
2022-10-18T13:27:46.121Z,16.20
2022-10-18T13:30:38.607Z,14.93
2022-10-18T13:33:23.516Z,15.00
2022-10-18T13:35:55.623Z,16.00
2022-10-18T13:38:47.283Z,12.93
2022-10-18T13:41:20.409Z,18.47
2022-10-18T13:44:12.510Z,12.63
2022-10-18T13:47:20.335Z,13.57
2022-10-18T13:50:25.821Z,13.77
2022-10-18T13:53:28.201Z,15.43
2022-10-18T13:56:09.451Z,13.47
2022-10-18T13:59:05.681Z,16.40
2022-10-18T14:01:54.469Z,17.83
2022-10-18T14:04:44.242Z,12.07
2022-10-18T14:07:15.439Z,12.67
2022-10-18T14:09:56.296Z,14.80
2022-10-18T14:12:32.357Z,10.43
2022-10-18T14:15:08.583Z,13.93
2022-10-18T14:17:50.584Z,10.20
2022-10-18T14:20:32.724Z,10.00
2022-10-18T14:23:06.387Z,12.53
2022-10-18T14:25:40.111Z,10.93
2022-10-18T14:28:16.456Z,8.47
2022-10-18T14:30:57.859Z,8.37
2022-10-18T14:33:35.045Z,9.83
2022-10-18T14:36:12.917Z,6.27
2022-10-18T14:38:50.698Z,6.27
2022-10-18T14:41:26.202Z,8.90
2022-10-18T14:44:10.653Z,8.97
2022-10-18T14:46:45.478Z,10.53
2022-10-18T14:49:23.024Z,16.07
2022-10-18T14:52:00.220Z,8.13
2022-10-18T14:54:32.474Z,8.83
2022-10-18T14:57:01.803Z,10.47
2022-10-18T14:59:34.396Z,8.80
2022-10-18T15:02:13.834Z,8.47
2022-10-18T15:04:45.442Z,7.10
2022-10-18T15:07:19.629Z,5.83
2022-10-18T15:09:51.072Z,8.57
2022-10-18T15:12:20.029Z,9.20
2022-10-18T15:14:49.789Z,9.33
2022-10-18T15:20:28.438Z,8.53
2022-10-18T15:23:24.623Z,8.83
2022-10-18T15:26:03.228Z,7.37
2022-10-18T15:28:36.006Z,5.80
2022-10-18T15:31:05.213Z,9.27
2022-10-18T15:33:35.118Z,5.83
2022-10-18T15:36:21.433Z,4.20
2022-10-18T15:38:50.158Z,6.83
2022-10-18T15:41:37.846Z,10.63
2022-10-18T15:44:18.979Z,5.83
2022-10-18T15:50:42.357Z,5.90
2022-10-18T15:53:36.896Z,8.83
2022-10-18T15:56:07.627Z,7.77
2022-10-18T15:58:51.501Z,10.60
2022-10-18T16:01:33.882Z,5.80
2022-10-18T16:04:20.411Z,7.50
2022-10-18T16:06:50.130Z,9.17
2022-10-18T16:09:21.213Z,12.13
2022-10-18T16:11:56.410Z,8.90
2022-10-18T16:14:27.081Z,12.60
2022-10-18T16:17:00.639Z,10.03
2022-10-18T16:19:29.078Z,13.10
2022-10-18T16:22:03.674Z,12.47
2022-10-18T16:24:34.443Z,15.40
2022-10-18T16:27:02.899Z,8.27
2022-10-18T16:29:33.208Z,5.40
2022-10-18T16:32:01.527Z,8.60
2022-10-18T16:34:32.255Z,10.47
2022-10-18T16:37:02.053Z,9.77
2022-10-18T16:39:34.840Z,9.10
2022-10-18T16:42:03.243Z,8.53
2022-10-18T16:44:36.075Z,12.03
2022-10-18T16:47:04.959Z,8.60
2022-10-18T16:49:33.205Z,9.53
2022-10-18T16:52:02.965Z,9.20
2022-10-18T16:54:31.157Z,9.73
2022-10-18T16:56:59.295Z,8.43
2022-10-18T16:59:29.235Z,8.73
2022-10-18T17:01:58.129Z,8.10
2022-10-18T17:04:26.580Z,10.80
2022-10-18T17:06:58.530Z,7.37
2022-10-18T17:09:27.984Z,4.47
2022-10-18T17:11:56.345Z,7.60
2022-10-18T17:14:24.538Z,5.43
2022-10-18T17:16:55.919Z,12.60
2022-10-18T17:19:50.130Z,9.23
2022-10-18T17:22:18.379Z,11.50
2022-10-18T17:24:47.917Z,14.33
2022-10-18T17:27:16.090Z,10.90
2022-10-18T17:30:12.652Z,16.30
2022-10-18T17:32:44.486Z,15.03
2022-10-18T17:35:13.434Z,12.80
2022-10-18T17:37:45.412Z,11.43
2022-10-18T17:40:19.914Z,12.40
2022-10-18T17:42:57.368Z,9.27
2022-10-18T17:45:25.874Z,12.67
2022-10-18T17:47:56.529Z,9.93
2022-10-18T17:50:30.800Z,14.20
2022-10-18T17:52:59.254Z,8.93
2022-10-18T17:55:30.194Z,13.33
2022-10-18T17:58:03.420Z,10.73
2022-10-18T18:00:34.779Z,6.23
2022-10-18T18:03:05.784Z,12.47
2022-10-18T18:05:41.282Z,10.97
2022-10-18T18:08:11.616Z,10.47
2022-10-18T18:10:44.589Z,7.57
2022-10-18T18:13:16.370Z,10.77
2022-10-18T18:16:11.461Z,9.87
2022-10-18T18:18:40.138Z,7.53
2022-10-18T18:21:08.640Z,10.97
2022-10-18T18:23:37.148Z,10.00
2022-10-18T18:26:07.581Z,11.57
2022-10-18T18:28:40.960Z,11.60
2022-10-18T18:32:05.219Z,12.27
2022-10-18T18:34:58.258Z,8.60
2022-10-18T18:37:47.889Z,14.50
2022-10-18T18:40:16.064Z,10.63
2022-10-18T18:42:56.791Z,8.83
2022-10-18T18:45:39.788Z,9.17
2022-10-18T18:48:08.344Z,8.73
2022-10-18T18:50:41.213Z,10.23
2022-10-18T18:53:31.445Z,10.57
2022-10-18T18:59:34.826Z,8.03
2022-10-18T19:02:38.481Z,12.97
2022-10-18T19:06:01.113Z,8.47
2022-10-18T19:09:15.405Z,13.73
2022-10-18T19:11:43.621Z,13.83
2022-10-18T19:14:25.395Z,14.30
2022-10-18T19:17:57.726Z,10.90
2022-10-18T19:24:25.125Z,12.13
2022-10-18T19:27:13.325Z,13.13
2022-10-18T19:34:19.363Z,8.17
2022-10-18T19:37:46.142Z,11.37
2022-10-18T19:40:39.127Z,8.50
2022-10-18T19:43:43.783Z,6.10
2022-10-18T19:46:12.723Z,12.13
2022-10-18T19:48:50.269Z,10.00
2022-10-18T19:51:25.490Z,12.93
2022-10-18T19:53:57.451Z,15.27
2022-10-18T19:57:14.843Z,11.10
2022-10-18T20:00:20.922Z,9.67
2022-10-18T20:02:52.236Z,7.77
2022-10-18T20:05:21.975Z,12.53
2022-10-18T20:07:50.217Z,13.60
2022-10-18T20:10:18.596Z,12.23
2022-10-18T20:12:46.924Z,11.57
2022-10-18T20:15:15.130Z,10.33
2022-10-18T20:17:43.401Z,6.30
2022-10-18T20:20:12.591Z,8.47
2022-10-18T20:22:42.181Z,10.90
2022-10-18T20:25:10.765Z,12.53
2022-10-18T20:27:39.238Z,10.77
2022-10-18T20:30:10.545Z,10.73
2022-10-18T20:32:42.737Z,8.53
2022-10-18T20:35:11.019Z,8.77
2022-10-18T20:37:44.593Z,6.67
2022-10-18T20:40:13.872Z,9.10
2022-10-18T20:42:42.242Z,7.10
2022-10-18T20:45:12.456Z,7.43
2022-10-18T20:47:43.594Z,6.87
2022-10-18T20:50:11.685Z,11.53
2022-10-18T20:52:39.837Z,10.73
2022-10-18T20:55:09.580Z,8.97
2022-10-18T20:57:44.025Z,9.63
2022-10-18T21:00:13.665Z,7.97
2022-10-18T21:02:44.146Z,12.13
2022-10-18T21:05:12.268Z,9.03
2022-10-18T21:07:43.041Z,8.97
2022-10-18T21:10:12.556Z,9.50
2022-10-18T21:12:40.931Z,10.73
2022-10-18T21:15:10.129Z,10.67
2022-10-18T21:18:03.211Z,8.77
2022-10-18T21:20:31.760Z,11.53
2022-10-18T21:22:59.978Z,7.50
2022-10-18T21:25:35.857Z,7.73
2022-10-18T21:28:03.947Z,6.87
2022-10-18T21:30:45.917Z,10.60
2022-10-18T21:33:14.107Z,11.67
2022-10-18T21:35:42.289Z,9.57
2022-10-18T21:38:10.668Z,10.00
2022-10-18T21:40:44.517Z,7.00
2022-10-18T21:43:12.813Z,10.00
2022-10-18T21:45:40.950Z,7.83
2022-10-18T21:48:09.180Z,9.90
2022-10-18T21:50:37.382Z,9.53
2022-10-18T21:53:05.537Z,7.00
2022-10-18T21:55:37.109Z,7.23
2022-10-18T21:58:15.957Z,8.80
2022-10-18T22:00:44.231Z,9.17
2022-10-18T22:03:14.664Z,6.70
2022-10-18T22:05:42.867Z,6.33
2022-10-18T22:08:10.994Z,8.27
2022-10-18T22:10:39.321Z,10.80
2022-10-18T22:13:07.570Z,4.40
2022-10-18T22:18:05.393Z,6.40
2022-10-18T22:20:33.678Z,5.77
2022-10-18T22:23:01.904Z,7.70
2022-10-18T22:25:30.058Z,9.53
2022-10-18T22:28:04.266Z,8.93
2022-10-18T22:30:46.145Z,8.10
2022-10-18T22:33:16.746Z,4.97
2022-10-18T22:35:49.625Z,9.23
2022-10-18T22:38:18.116Z,7.27
2022-10-18T22:40:47.010Z,8.00
2022-10-18T22:43:15.343Z,8.20
2022-10-18T22:45:43.514Z,9.60
2022-10-18T22:48:13.194Z,9.10
2022-10-18T22:50:41.333Z,7.40
2022-10-18T22:53:09.500Z,9.10
2022-10-18T22:55:37.654Z,7.83
2022-10-18T22:58:05.705Z,9.73
2022-10-18T23:00:33.883Z,5.10
2022-10-18T23:03:03.447Z,4.53
2022-10-18T23:05:38.514Z,8.57
2022-10-18T23:08:06.903Z,6.30
2022-10-18T23:10:35.381Z,8.17
2022-10-18T23:13:10.994Z,5.87
2022-10-18T23:15:39.980Z,5.10
2022-10-18T23:18:08.287Z,9.60
2022-10-18T23:20:38.002Z,6.13
2022-10-18T23:23:06.276Z,9.73
2022-10-18T23:25:36.564Z,10.00
2022-10-18T23:28:05.026Z,7.53
2022-10-18T23:30:33.880Z,9.33
2022-10-18T23:33:02.276Z,9.50
2022-10-18T23:35:30.645Z,10.70
2022-10-18T23:38:00.301Z,9.37
2022-10-18T23:40:29.687Z,10.07
2022-10-18T23:42:57.812Z,4.50
2022-10-18T23:45:26.015Z,9.63
2022-10-18T23:47:54.191Z,8.80
2022-10-18T23:50:22.380Z,10.27
2022-10-18T23:52:52.465Z,6.80
2022-10-18T23:55:22.192Z,7.10
2022-10-18T23:57:50.307Z,7.53
